sensor_id;sensor_type;location;lat;lon;timestamp;temperature;humidity
21306;DHT22;10812;51.838;5.838;2022-11-21T00:00:47;2.80;99.90
21306;DHT22;10812;51.838;5.838;2022-11-21T00:03:15;2.80;99.90
21306;DHT22;10812;51.838;5.838;2022-11-21T00:05:45;2.80;99.90
21306;DHT22;10812;51.838;5.838;2022-11-21T00:08:15;2.80;99.90
21306;DHT22;10812;51.838;5.838;2022-11-21T00:10:45;2.70;99.90
21306;DHT22;10812;51.838;5.838;2022-11-21T00:13:15;2.80;99.90
21306;DHT22;10812;51.838;5.838;2022-11-21T00:15:43;2.80;99.90
21306;DHT22;10812;51.838;5.838;2022-11-21T00:18:12;2.80;99.90
21306;DHT22;10812;51.838;5.838;2022-11-21T00:20:40;2.90;99.90
21306;DHT22;10812;51.838;5.838;2022-11-21T00:23:09;2.90;99.90
21306;DHT22;10812;51.838;5.838;2022-11-21T00:25:37;2.90;99.90
21306;DHT22;10812;51.838;5.838;2022-11-21T00:28:07;2.90;99.90
21306;DHT22;10812;51.838;5.838;2022-11-21T00:30:35;2.90;99.90
21306;DHT22;10812;51.838;5.838;2022-11-21T00:33:03;3.00;99.90
21306;DHT22;10812;51.838;5.838;2022-11-21T00:35:31;2.90;99.90
21306;DHT22;10812;51.838;5.838;2022-11-21T00:37:59;2.90;99.90
21306;DHT22;10812;51.838;5.838;2022-11-21T00:40:27;2.90;99.90
21306;DHT22;10812;51.838;5.838;2022-11-21T00:42:55;2.80;99.90
21306;DHT22;10812;51.838;5.838;2022-11-21T00:45:24;2.80;99.90
21306;DHT22;10812;51.838;5.838;2022-11-21T00:47:52;2.80;99.90
21306;DHT22;10812;51.838;5.838;2022-11-21T00:50:20;2.80;99.90
21306;DHT22;10812;51.838;5.838;2022-11-21T00:52:48;2.80;99.90
21306;DHT22;10812;51.838;5.838;2022-11-21T00:55:20;2.80;99.90
21306;DHT22;10812;51.838;5.838;2022-11-21T00:57:49;2.90;99.90
21306;DHT22;10812;51.838;5.838;2022-11-21T01:00:17;2.80;99.90
21306;DHT22;10812;51.838;5.838;2022-11-21T01:02:47;2.80;99.90
21306;DHT22;10812;51.838;5.838;2022-11-21T01:05:15;2.80;99.90
21306;DHT22;10812;51.838;5.838;2022-11-21T01:07:43;2.80;99.90
21306;DHT22;10812;51.838;5.838;2022-11-21T01:10:11;2.90;99.90
21306;DHT22;10812;51.838;5.838;2022-11-21T01:12:39;2.90;99.90
21306;DHT22;10812;51.838;5.838;2022-11-21T01:15:08;2.90;99.90
21306;DHT22;10812;51.838;5.838;2022-11-21T01:25:18;2.90;99.90
21306;DHT22;10812;51.838;5.838;2022-11-21T01:27:46;2.90;99.90
21306;DHT22;10812;51.838;5.838;2022-11-21T01:30:15;2.90;99.90
21306;DHT22;10812;51.838;5.838;2022-11-21T01:32:47;3.00;99.90
21306;DHT22;10812;51.838;5.838;2022-11-21T01:35:15;2.90;99.90
21306;DHT22;10812;51.838;5.838;2022-11-21T01:37:46;2.90;99.90
21306;DHT22;10812;51.838;5.838;2022-11-21T01:40:14;2.90;99.90
21306;DHT22;10812;51.838;5.838;2022-11-21T01:42:50;2.90;99.90
21306;DHT22;10812;51.838;5.838;2022-11-21T01:45:51;2.90;99.90
21306;DHT22;10812;51.838;5.838;2022-11-21T01:48:24;2.90;99.90
21306;DHT22;10812;51.838;5.838;2022-11-21T01:50:53;2.80;99.90
21306;DHT22;10812;51.838;5.838;2022-11-21T01:53:22;2.80;99.90
21306;DHT22;10812;51.838;5.838;2022-11-21T01:55:51;2.80;99.90
21306;DHT22;10812;51.838;5.838;2022-11-21T01:58:21;2.80;99.90
21306;DHT22;10812;51.838;5.838;2022-11-21T02:00:49;2.80;99.90
21306;DHT22;10812;51.838;5.838;2022-11-21T02:03:20;2.80;99.90
21306;DHT22;10812;51.838;5.838;2022-11-21T02:05:49;2.70;99.90
21306;DHT22;10812;51.838;5.838;2022-11-21T02:08:19;2.80;99.90
21306;DHT22;10812;51.838;5.838;2022-11-21T02:10:54;2.80;99.90
21306;DHT22;10812;51.838;5.838;2022-11-21T02:13:24;2.80;99.90
21306;DHT22;10812;51.838;5.838;2022-11-21T02:15:52;2.80;99.90
21306;DHT22;10812;51.838;5.838;2022-11-21T02:18:21;2.80;99.90
21306;DHT22;10812;51.838;5.838;2022-11-21T02:20:55;2.80;99.90
21306;DHT22;10812;51.838;5.838;2022-11-21T02:23:28;2.70;99.90
21306;DHT22;10812;51.838;5.838;2022-11-21T02:26:00;2.70;99.90
21306;DHT22;10812;51.838;5.838;2022-11-21T02:28:28;2.70;99.90
21306;DHT22;10812;51.838;5.838;2022-11-21T02:30:57;2.80;99.90
21306;DHT22;10812;51.838;5.838;2022-11-21T02:33:25;2.70;99.90
21306;DHT22;10812;51.838;5.838;2022-11-21T02:35:57;2.70;99.90
21306;DHT22;10812;51.838;5.838;2022-11-21T02:38:29;2.60;99.90
21306;DHT22;10812;51.838;5.838;2022-11-21T02:41:06;2.70;99.90
21306;DHT22;10812;51.838;5.838;2022-11-21T02:43:39;2.70;99.90
21306;DHT22;10812;51.838;5.838;2022-11-21T02:46:09;2.60;99.90
21306;DHT22;10812;51.838;5.838;2022-11-21T02:48:37;2.70;99.90
21306;DHT22;10812;51.838;5.838;2022-11-21T02:51:06;2.70;99.90
21306;DHT22;10812;51.838;5.838;2022-11-21T02:53:34;2.70;99.90
21306;DHT22;10812;51.838;5.838;2022-11-21T02:56:04;2.60;99.90
21306;DHT22;10812;51.838;5.838;2022-11-21T02:58:32;2.70;99.90
21306;DHT22;10812;51.838;5.838;2022-11-21T03:06:31;2.70;99.90
21306;DHT22;10812;51.838;5.838;2022-11-21T03:08:59;2.90;99.90
21306;DHT22;10812;51.838;5.838;2022-11-21T03:26:32;2.90;99.90
21306;DHT22;10812;51.838;5.838;2022-11-21T03:29:00;2.80;99.90
21306;DHT22;10812;51.838;5.838;2022-11-21T03:31:28;2.80;99.90
21306;DHT22;10812;51.838;5.838;2022-11-21T03:33:56;2.70;99.90
21306;DHT22;10812;51.838;5.838;2022-11-21T03:36:25;2.90;99.90
21306;DHT22;10812;51.838;5.838;2022-11-21T03:38:53;2.80;99.90
21306;DHT22;10812;51.838;5.838;2022-11-21T03:41:22;2.80;99.90
21306;DHT22;10812;51.838;5.838;2022-11-21T03:43:58;2.80;99.90
21306;DHT22;10812;51.838;5.838;2022-11-21T03:46:27;2.70;99.90
21306;DHT22;10812;51.838;5.838;2022-11-21T03:48:55;2.70;99.90
21306;DHT22;10812;51.838;5.838;2022-11-21T03:51:24;2.80;99.90
21306;DHT22;10812;51.838;5.838;2022-11-21T03:53:52;2.90;99.90
21306;DHT22;10812;51.838;5.838;2022-11-21T03:56:21;3.00;99.90
21306;DHT22;10812;51.838;5.838;2022-11-21T03:58:49;2.90;99.90
21306;DHT22;10812;51.838;5.838;2022-11-21T04:01:19;2.80;99.90
21306;DHT22;10812;51.838;5.838;2022-11-21T04:03:48;2.80;99.90
21306;DHT22;10812;51.838;5.838;2022-11-21T04:06:17;2.70;99.90
21306;DHT22;10812;51.838;5.838;2022-11-21T04:08:46;2.70;99.90
21306;DHT22;10812;51.838;5.838;2022-11-21T04:11:15;2.70;99.90
21306;DHT22;10812;51.838;5.838;2022-11-21T04:13:43;2.60;99.90
21306;DHT22;10812;51.838;5.838;2022-11-21T04:16:11;2.70;99.90
21306;DHT22;10812;51.838;5.838;2022-11-21T04:18:41;2.70;99.90
21306;DHT22;10812;51.838;5.838;2022-11-21T04:21:09;2.60;99.90
21306;DHT22;10812;51.838;5.838;2022-11-21T04:23:37;2.70;99.90
21306;DHT22;10812;51.838;5.838;2022-11-21T04:26:05;2.70;99.90
21306;DHT22;10812;51.838;5.838;2022-11-21T04:28:33;2.70;99.90
21306;DHT22;10812;51.838;5.838;2022-11-21T04:31:02;2.70;99.90
21306;DHT22;10812;51.838;5.838;2022-11-21T04:33:36;2.70;99.90
21306;DHT22;10812;51.838;5.838;2022-11-21T04:36:06;2.60;99.90
21306;DHT22;10812;51.838;5.838;2022-11-21T04:38:35;2.60;99.90
21306;DHT22;10812;51.838;5.838;2022-11-21T04:41:03;2.70;99.90
21306;DHT22;10812;51.838;5.838;2022-11-21T04:43:31;2.60;99.90
21306;DHT22;10812;51.838;5.838;2022-11-21T04:45:59;2.60;99.90
21306;DHT22;10812;51.838;5.838;2022-11-21T04:48:27;2.60;99.90
21306;DHT22;10812;51.838;5.838;2022-11-21T04:50:55;2.60;99.90
21306;DHT22;10812;51.838;5.838;2022-11-21T04:53:25;2.70;99.90
21306;DHT22;10812;51.838;5.838;2022-11-21T04:55:53;2.60;99.90
21306;DHT22;10812;51.838;5.838;2022-11-21T04:58:21;2.70;99.90
21306;DHT22;10812;51.838;5.838;2022-11-21T05:00:49;2.70;99.90
21306;DHT22;10812;51.838;5.838;2022-11-21T05:03:17;2.70;99.90
21306;DHT22;10812;51.838;5.838;2022-11-21T05:05:45;2.70;99.90
21306;DHT22;10812;51.838;5.838;2022-11-21T05:08:14;2.70;99.90
21306;DHT22;10812;51.838;5.838;2022-11-21T05:10:43;2.70;99.90
21306;DHT22;10812;51.838;5.838;2022-11-21T05:13:29;2.70;99.90
21306;DHT22;10812;51.838;5.838;2022-11-21T05:15:57;2.70;99.90
21306;DHT22;10812;51.838;5.838;2022-11-21T05:18:25;2.70;99.90
21306;DHT22;10812;51.838;5.838;2022-11-21T05:20:53;2.70;99.90
21306;DHT22;10812;51.838;5.838;2022-11-21T05:23:22;2.80;99.90
21306;DHT22;10812;51.838;5.838;2022-11-21T05:25:51;2.80;99.90
21306;DHT22;10812;51.838;5.838;2022-11-21T05:28:19;2.80;99.90
21306;DHT22;10812;51.838;5.838;2022-11-21T05:30:47;2.80;99.90
21306;DHT22;10812;51.838;5.838;2022-11-21T05:33:15;2.90;99.90
21306;DHT22;10812;51.838;5.838;2022-11-21T05:35:44;2.90;99.90
21306;DHT22;10812;51.838;5.838;2022-11-21T05:38:12;2.80;99.90
21306;DHT22;10812;51.838;5.838;2022-11-21T05:40:40;2.90;99.90
21306;DHT22;10812;51.838;5.838;2022-11-21T05:43:10;2.90;99.90
21306;DHT22;10812;51.838;5.838;2022-11-21T05:45:56;2.90;99.90
21306;DHT22;10812;51.838;5.838;2022-11-21T05:48:24;2.90;99.90
21306;DHT22;10812;51.838;5.838;2022-11-21T05:50:52;2.90;99.90
21306;DHT22;10812;51.838;5.838;2022-11-21T05:53:20;3.00;99.90
21306;DHT22;10812;51.838;5.838;2022-11-21T05:55:49;3.20;99.90
21306;DHT22;10812;51.838;5.838;2022-11-21T05:58:18;3.20;99.90
21306;DHT22;10812;51.838;5.838;2022-11-21T06:00:46;3.20;99.90
21306;DHT22;10812;51.838;5.838;2022-11-21T06:03:14;3.30;99.90
21306;DHT22;10812;51.838;5.838;2022-11-21T06:06:02;3.10;99.90
21306;DHT22;10812;51.838;5.838;2022-11-21T06:08:32;2.90;99.90
21306;DHT22;10812;51.838;5.838;2022-11-21T06:11:00;2.90;99.90
21306;DHT22;10812;51.838;5.838;2022-11-21T06:13:31;3.00;99.90
21306;DHT22;10812;51.838;5.838;2022-11-21T06:16:01;3.10;99.90
21306;DHT22;10812;51.838;5.838;2022-11-21T06:18:31;3.10;99.90
21306;DHT22;10812;51.838;5.838;2022-11-21T06:21:00;3.20;99.90
21306;DHT22;10812;51.838;5.838;2022-11-21T06:23:28;3.10;99.90
21306;DHT22;10812;51.838;5.838;2022-11-21T06:25:57;3.00;99.90
21306;DHT22;10812;51.838;5.838;2022-11-21T06:28:26;3.10;99.90
21306;DHT22;10812;51.838;5.838;2022-11-21T06:30:56;3.10;99.90
21306;DHT22;10812;51.838;5.838;2022-11-21T06:33:24;3.10;99.90
21306;DHT22;10812;51.838;5.838;2022-11-21T06:35:53;3.20;99.90
21306;DHT22;10812;51.838;5.838;2022-11-21T06:38:21;3.10;99.90
21306;DHT22;10812;51.838;5.838;2022-11-21T06:40:49;3.10;99.90
21306;DHT22;10812;51.838;5.838;2022-11-21T06:43:17;3.10;99.90
21306;DHT22;10812;51.838;5.838;2022-11-21T06:45:45;3.10;99.90
21306;DHT22;10812;51.838;5.838;2022-11-21T06:48:15;3.00;99.90
21306;DHT22;10812;51.838;5.838;2022-11-21T06:50:43;3.00;99.90
21306;DHT22;10812;51.838;5.838;2022-11-21T06:53:11;3.00;99.90
21306;DHT22;10812;51.838;5.838;2022-11-21T06:55:39;3.00;99.90
21306;DHT22;10812;51.838;5.838;2022-11-21T06:58:07;3.00;99.90
21306;DHT22;10812;51.838;5.838;2022-11-21T07:00:35;3.00;99.90
21306;DHT22;10812;51.838;5.838;2022-11-21T07:03:03;3.00;99.90
21306;DHT22;10812;51.838;5.838;2022-11-21T07:05:33;3.10;99.90
21306;DHT22;10812;51.838;5.838;2022-11-21T07:08:03;3.20;99.90
21306;DHT22;10812;51.838;5.838;2022-11-21T07:10:38;3.20;99.90
21306;DHT22;10812;51.838;5.838;2022-11-21T07:13:27;3.20;99.90
21306;DHT22;10812;51.838;5.838;2022-11-21T07:16:00;3.20;99.90
21306;DHT22;10812;51.838;5.838;2022-11-21T07:18:28;3.20;99.90
21306;DHT22;10812;51.838;5.838;2022-11-21T07:20:58;3.40;99.90
21306;DHT22;10812;51.838;5.838;2022-11-21T07:23:27;3.40;99.90
21306;DHT22;10812;51.838;5.838;2022-11-21T07:25:58;3.30;99.90
21306;DHT22;10812;51.838;5.838;2022-11-21T07:28:27;3.30;99.90
21306;DHT22;10812;51.838;5.838;2022-11-21T07:30:55;3.30;99.90
21306;DHT22;10812;51.838;5.838;2022-11-21T07:33:24;3.40;99.90
21306;DHT22;10812;51.838;5.838;2022-11-21T07:35:54;3.50;99.90
21306;DHT22;10812;51.838;5.838;2022-11-21T07:38:24;3.40;99.90
21306;DHT22;10812;51.838;5.838;2022-11-21T07:40:55;3.40;99.90
21306;DHT22;10812;51.838;5.838;2022-11-21T07:43:23;3.50;99.90
21306;DHT22;10812;51.838;5.838;2022-11-21T07:45:51;3.50;99.90
21306;DHT22;10812;51.838;5.838;2022-11-21T07:48:19;3.40;99.90
21306;DHT22;10812;51.838;5.838;2022-11-21T07:50:47;3.50;99.90
21306;DHT22;10812;51.838;5.838;2022-11-21T07:53:15;3.60;99.90
21306;DHT22;10812;51.838;5.838;2022-11-21T07:55:45;3.80;99.90
21306;DHT22;10812;51.838;5.838;2022-11-21T07:58:14;3.80;99.90
21306;DHT22;10812;51.838;5.838;2022-11-21T08:00:43;3.90;99.90
21306;DHT22;10812;51.838;5.838;2022-11-21T08:03:11;4.00;99.90
21306;DHT22;10812;51.838;5.838;2022-11-21T08:05:41;4.00;99.90
21306;DHT22;10812;51.838;5.838;2022-11-21T08:08:10;4.10;99.90
21306;DHT22;10812;51.838;5.838;2022-11-21T08:10:41;4.00;99.90
21306;DHT22;10812;51.838;5.838;2022-11-21T08:13:11;4.00;99.90
21306;DHT22;10812;51.838;5.838;2022-11-21T08:15:39;4.10;99.90
21306;DHT22;10812;51.838;5.838;2022-11-21T08:18:08;4.00;99.90
21306;DHT22;10812;51.838;5.838;2022-11-21T08:20:37;4.10;99.90
21306;DHT22;10812;51.838;5.838;2022-11-21T08:23:05;4.10;99.90
21306;DHT22;10812;51.838;5.838;2022-11-21T08:25:35;4.10;99.90
21306;DHT22;10812;51.838;5.838;2022-11-21T08:28:04;4.30;99.90
21306;DHT22;10812;51.838;5.838;2022-11-21T08:30:34;4.40;99.90
21306;DHT22;10812;51.838;5.838;2022-11-21T08:33:03;4.40;99.90
21306;DHT22;10812;51.838;5.838;2022-11-21T08:35:31;4.40;99.90
21306;DHT22;10812;51.838;5.838;2022-11-21T08:38:02;4.30;99.90
21306;DHT22;10812;51.838;5.838;2022-11-21T08:40:31;4.20;99.90
21306;DHT22;10812;51.838;5.838;2022-11-21T08:43:00;4.20;99.90
21306;DHT22;10812;51.838;5.838;2022-11-21T08:45:29;4.30;99.90
21306;DHT22;10812;51.838;5.838;2022-11-21T08:47:59;4.40;99.90
21306;DHT22;10812;51.838;5.838;2022-11-21T08:50:28;4.40;99.90
21306;DHT22;10812;51.838;5.838;2022-11-21T08:52:58;4.50;99.90
21306;DHT22;10812;51.838;5.838;2022-11-21T08:55:28;4.60;99.90
21306;DHT22;10812;51.838;5.838;2022-11-21T08:57:56;4.60;99.90
21306;DHT22;10812;51.838;5.838;2022-11-21T09:00:25;4.70;99.90
21306;DHT22;10812;51.838;5.838;2022-11-21T09:02:53;4.60;99.90
21306;DHT22;10812;51.838;5.838;2022-11-21T09:05:22;4.70;99.90
21306;DHT22;10812;51.838;5.838;2022-11-21T09:07:55;4.80;99.90
21306;DHT22;10812;51.838;5.838;2022-11-21T09:10:24;4.90;99.90
21306;DHT22;10812;51.838;5.838;2022-11-21T09:12:52;5.00;99.90
21306;DHT22;10812;51.838;5.838;2022-11-21T09:15:20;5.00;99.90
21306;DHT22;10812;51.838;5.838;2022-11-21T09:18:06;5.00;99.90
21306;DHT22;10812;51.838;5.838;2022-11-21T09:20:40;5.00;99.90
21306;DHT22;10812;51.838;5.838;2022-11-21T09:23:10;5.20;99.90
21306;DHT22;10812;51.838;5.838;2022-11-21T09:25:39;5.40;99.90
21306;DHT22;10812;51.838;5.838;2022-11-21T09:28:08;5.50;99.90
21306;DHT22;10812;51.838;5.838;2022-11-21T09:30:37;5.60;99.90
21306;DHT22;10812;51.838;5.838;2022-11-21T09:33:06;5.60;99.90
21306;DHT22;10812;51.838;5.838;2022-11-21T09:35:35;5.60;99.90
21306;DHT22;10812;51.838;5.838;2022-11-21T09:38:04;5.60;99.90
21306;DHT22;10812;51.838;5.838;2022-11-21T09:40:33;5.60;99.90
21306;DHT22;10812;51.838;5.838;2022-11-21T09:43:25;5.80;99.90
21306;DHT22;10812;51.838;5.838;2022-11-21T09:46:02;6.10;99.90
21306;DHT22;10812;51.838;5.838;2022-11-21T09:48:35;6.20;99.90
21306;DHT22;10812;51.838;5.838;2022-11-21T09:51:10;6.20;99.90
21306;DHT22;10812;51.838;5.838;2022-11-21T09:53:50;6.30;99.90
21306;DHT22;10812;51.838;5.838;2022-11-21T09:56:21;6.30;99.90
21306;DHT22;10812;51.838;5.838;2022-11-21T09:59:11;6.50;99.90
21306;DHT22;10812;51.838;5.838;2022-11-21T10:01:44;6.60;99.90
21306;DHT22;10812;51.838;5.838;2022-11-21T10:04:13;6.80;99.90
21306;DHT22;10812;51.838;5.838;2022-11-21T10:06:46;6.80;99.90
21306;DHT22;10812;51.838;5.838;2022-11-21T10:09:24;6.80;99.90
21306;DHT22;10812;51.838;5.838;2022-11-21T10:11:58;6.80;99.90
21306;DHT22;10812;51.838;5.838;2022-11-21T10:14:55;6.90;99.90
21306;DHT22;10812;51.838;5.838;2022-11-21T10:17:34;6.80;99.90
21306;DHT22;10812;51.838;5.838;2022-11-21T10:20:25;6.80;99.90
21306;DHT22;10812;51.838;5.838;2022-11-21T10:23:10;6.60;99.90
21306;DHT22;10812;51.838;5.838;2022-11-21T10:25:46;6.50;99.90
21306;DHT22;10812;51.838;5.838;2022-11-21T10:32:02;6.50;99.90
21306;DHT22;10812;51.838;5.838;2022-11-21T10:34:34;6.50;99.90
21306;DHT22;10812;51.838;5.838;2022-11-21T10:37:22;6.60;99.90
21306;DHT22;10812;51.838;5.838;2022-11-21T10:39:53;6.80;99.90
21306;DHT22;10812;51.838;5.838;2022-11-21T10:42:33;6.90;99.90
21306;DHT22;10812;51.838;5.838;2022-11-21T10:45:03;6.90;99.90
21306;DHT22;10812;51.838;5.838;2022-11-21T10:47:44;7.00;99.90
21306;DHT22;10812;51.838;5.838;2022-11-21T10:50:24;7.00;99.90
21306;DHT22;10812;51.838;5.838;2022-11-21T10:53:03;7.10;99.90
21306;DHT22;10812;51.838;5.838;2022-11-21T10:56:00;7.10;99.90
21306;DHT22;10812;51.838;5.838;2022-11-21T10:58:37;7.20;99.90
21306;DHT22;10812;51.838;5.838;2022-11-21T11:01:18;7.30;99.90
21306;DHT22;10812;51.838;5.838;2022-11-21T11:03:46;7.40;99.90
21306;DHT22;10812;51.838;5.838;2022-11-21T11:06:34;7.30;99.90
21306;DHT22;10812;51.838;5.838;2022-11-21T11:09:03;7.20;99.90
21306;DHT22;10812;51.838;5.838;2022-11-21T11:11:33;7.10;99.90
21306;DHT22;10812;51.838;5.838;2022-11-21T11:14:04;7.10;99.90
21306;DHT22;10812;51.838;5.838;2022-11-21T11:16:34;7.20;99.90
21306;DHT22;10812;51.838;5.838;2022-11-21T11:19:18;7.30;99.90
21306;DHT22;10812;51.838;5.838;2022-11-21T11:21:57;7.30;99.90
21306;DHT22;10812;51.838;5.838;2022-11-21T11:24:25;7.40;99.90
21306;DHT22;10812;51.838;5.838;2022-11-21T11:26:58;7.40;99.90
21306;DHT22;10812;51.838;5.838;2022-11-21T11:29:29;7.30;99.90
21306;DHT22;10812;51.838;5.838;2022-11-21T11:32:01;7.40;99.90
21306;DHT22;10812;51.838;5.838;2022-11-21T11:34:37;7.30;99.90
21306;DHT22;10812;51.838;5.838;2022-11-21T11:37:11;7.30;99.90
21306;DHT22;10812;51.838;5.838;2022-11-21T11:39:47;7.30;99.90
21306;DHT22;10812;51.838;5.838;2022-11-21T11:42:36;7.20;99.90
21306;DHT22;10812;51.838;5.838;2022-11-21T11:45:40;7.20;99.90
21306;DHT22;10812;51.838;5.838;2022-11-21T11:48:42;7.30;99.90
21306;DHT22;10812;51.838;5.838;2022-11-21T11:51:35;7.40;99.90
21306;DHT22;10812;51.838;5.838;2022-11-21T11:54:07;7.60;99.90
21306;DHT22;10812;51.838;5.838;2022-11-21T11:56:38;7.60;99.90
21306;DHT22;10812;51.838;5.838;2022-11-21T11:59:11;7.70;99.90
21306;DHT22;10812;51.838;5.838;2022-11-21T12:01:47;7.80;99.90
21306;DHT22;10812;51.838;5.838;2022-11-21T12:04:18;7.80;99.90
21306;DHT22;10812;51.838;5.838;2022-11-21T12:06:50;7.80;99.90
21306;DHT22;10812;51.838;5.838;2022-11-21T12:09:46;7.80;99.90
21306;DHT22;10812;51.838;5.838;2022-11-21T12:12:22;7.80;99.90
21306;DHT22;10812;51.838;5.838;2022-11-21T12:15:02;7.80;99.90
21306;DHT22;10812;51.838;5.838;2022-11-21T12:18:14;7.90;99.90
21306;DHT22;10812;51.838;5.838;2022-11-21T12:20:49;8.00;99.90
21306;DHT22;10812;51.838;5.838;2022-11-21T12:23:20;8.00;99.90
21306;DHT22;10812;51.838;5.838;2022-11-21T12:26:00;8.00;99.90
21306;DHT22;10812;51.838;5.838;2022-11-21T12:28:38;8.10;99.90
21306;DHT22;10812;51.838;5.838;2022-11-21T12:31:15;8.10;99.90
21306;DHT22;10812;51.838;5.838;2022-11-21T12:33:57;8.00;99.90
21306;DHT22;10812;51.838;5.838;2022-11-21T12:36:38;7.90;99.90
21306;DHT22;10812;51.838;5.838;2022-11-21T12:39:38;7.80;99.90
21306;DHT22;10812;51.838;5.838;2022-11-21T12:42:16;7.70;99.90
21306;DHT22;10812;51.838;5.838;2022-11-21T12:45:21;7.60;99.90
21306;DHT22;10812;51.838;5.838;2022-11-21T12:48:05;7.50;99.90
21306;DHT22;10812;51.838;5.838;2022-11-21T12:51:06;7.40;99.90
21306;DHT22;10812;51.838;5.838;2022-11-21T12:53:58;7.40;99.90
21306;DHT22;10812;51.838;5.838;2022-11-21T12:56:50;7.30;99.90
21306;DHT22;10812;51.838;5.838;2022-11-21T12:59:23;7.30;99.90
21306;DHT22;10812;51.838;5.838;2022-11-21T13:01:59;7.20;99.90
21306;DHT22;10812;51.838;5.838;2022-11-21T13:04:35;7.30;99.90
21306;DHT22;10812;51.838;5.838;2022-11-21T13:07:07;7.40;99.90
21306;DHT22;10812;51.838;5.838;2022-11-21T13:09:39;7.40;99.90
21306;DHT22;10812;51.838;5.838;2022-11-21T13:12:12;7.40;99.90
21306;DHT22;10812;51.838;5.838;2022-11-21T13:14:45;7.50;99.90
21306;DHT22;10812;51.838;5.838;2022-11-21T13:17:28;7.60;99.90
21306;DHT22;10812;51.838;5.838;2022-11-21T13:20:04;7.50;99.90
21306;DHT22;10812;51.838;5.838;2022-11-21T13:22:57;7.60;99.90
21306;DHT22;10812;51.838;5.838;2022-11-21T13:25:42;7.60;99.90
21306;DHT22;10812;51.838;5.838;2022-11-21T13:28:44;7.70;99.90
21306;DHT22;10812;51.838;5.838;2022-11-21T13:31:30;7.80;99.90
21306;DHT22;10812;51.838;5.838;2022-11-21T13:33:59;7.80;99.90
21306;DHT22;10812;51.838;5.838;2022-11-21T13:36:38;7.80;99.90
21306;DHT22;10812;51.838;5.838;2022-11-21T13:39:36;7.90;99.90
21306;DHT22;10812;51.838;5.838;2022-11-21T13:42:12;7.90;99.90
21306;DHT22;10812;51.838;5.838;2022-11-21T13:45:02;7.90;99.90
21306;DHT22;10812;51.838;5.838;2022-11-21T13:51:30;8.00;99.90
21306;DHT22;10812;51.838;5.838;2022-11-21T13:57:36;8.00;99.90
21306;DHT22;10812;51.838;5.838;2022-11-21T14:00:28;8.00;99.90
21306;DHT22;10812;51.838;5.838;2022-11-21T14:06:08;7.90;99.90
21306;DHT22;10812;51.838;5.838;2022-11-21T14:08:40;7.90;99.90
21306;DHT22;10812;51.838;5.838;2022-11-21T14:11:20;7.90;99.90
21306;DHT22;10812;51.838;5.838;2022-11-21T14:13:50;7.90;99.90
21306;DHT22;10812;51.838;5.838;2022-11-21T14:16:27;7.80;99.90
21306;DHT22;10812;51.838;5.838;2022-11-21T14:18:58;7.70;99.90
21306;DHT22;10812;51.838;5.838;2022-11-21T14:21:28;7.70;99.90
21306;DHT22;10812;51.838;5.838;2022-11-21T14:23:59;7.60;99.90
21306;DHT22;10812;51.838;5.838;2022-11-21T14:26:30;7.60;99.90
21306;DHT22;10812;51.838;5.838;2022-11-21T14:31:59;7.60;99.90
21306;DHT22;10812;51.838;5.838;2022-11-21T14:34:28;7.60;99.90
21306;DHT22;10812;51.838;5.838;2022-11-21T14:36:59;7.50;99.90
21306;DHT22;10812;51.838;5.838;2022-11-21T14:39:29;7.50;99.90
21306;DHT22;10812;51.838;5.838;2022-11-21T14:42:11;7.50;99.90
21306;DHT22;10812;51.838;5.838;2022-11-21T14:44:41;7.40;99.90
21306;DHT22;10812;51.838;5.838;2022-11-21T14:47:14;7.40;99.90
21306;DHT22;10812;51.838;5.838;2022-11-21T14:49:52;7.30;99.90
21306;DHT22;10812;51.838;5.838;2022-11-21T14:52:23;7.30;99.90
21306;DHT22;10812;51.838;5.838;2022-11-21T14:54:55;7.30;99.90
21306;DHT22;10812;51.838;5.838;2022-11-21T14:57:44;7.30;99.90
21306;DHT22;10812;51.838;5.838;2022-11-21T15:00:15;7.30;99.90
21306;DHT22;10812;51.838;5.838;2022-11-21T15:03:17;7.30;99.90
21306;DHT22;10812;51.838;5.838;2022-11-21T15:05:48;7.20;99.90
21306;DHT22;10812;51.838;5.838;2022-11-21T15:08:35;7.20;99.90
21306;DHT22;10812;51.838;5.838;2022-11-21T15:11:29;7.20;99.90
21306;DHT22;10812;51.838;5.838;2022-11-21T15:14:02;7.10;99.90
21306;DHT22;10812;51.838;5.838;2022-11-21T15:16:42;7.10;99.90
21306;DHT22;10812;51.838;5.838;2022-11-21T15:19:21;7.10;99.90
21306;DHT22;10812;51.838;5.838;2022-11-21T15:21:50;7.00;99.90
21306;DHT22;10812;51.838;5.838;2022-11-21T15:24:28;7.00;99.90
21306;DHT22;10812;51.838;5.838;2022-11-21T15:27:22;7.00;99.90
21306;DHT22;10812;51.838;5.838;2022-11-21T15:30:25;6.90;99.90
21306;DHT22;10812;51.838;5.838;2022-11-21T15:33:01;7.00;99.90
21306;DHT22;10812;51.838;5.838;2022-11-21T15:35:49;7.00;99.90
21306;DHT22;10812;51.838;5.838;2022-11-21T15:38:30;6.90;99.90
21306;DHT22;10812;51.838;5.838;2022-11-21T15:41:23;6.90;99.90
21306;DHT22;10812;51.838;5.838;2022-11-21T15:43:52;7.00;99.90
21306;DHT22;10812;51.838;5.838;2022-11-21T15:46:22;7.00;99.90
21306;DHT22;10812;51.838;5.838;2022-11-21T15:48:52;7.00;99.90
21306;DHT22;10812;51.838;5.838;2022-11-21T15:51:23;7.10;99.90
21306;DHT22;10812;51.838;5.838;2022-11-21T15:54:13;7.10;99.90
21306;DHT22;10812;51.838;5.838;2022-11-21T15:56:41;7.10;99.90
21306;DHT22;10812;51.838;5.838;2022-11-21T15:59:09;7.10;99.90
21306;DHT22;10812;51.838;5.838;2022-11-21T16:01:38;7.10;99.90
21306;DHT22;10812;51.838;5.838;2022-11-21T16:04:08;7.10;99.90
21306;DHT22;10812;51.838;5.838;2022-11-21T16:06:38;7.10;99.90
21306;DHT22;10812;51.838;5.838;2022-11-21T16:09:06;7.10;99.90
21306;DHT22;10812;51.838;5.838;2022-11-21T16:11:36;7.10;99.90
21306;DHT22;10812;51.838;5.838;2022-11-21T16:14:07;7.10;99.90
21306;DHT22;10812;51.838;5.838;2022-11-21T16:16:37;7.10;99.90
21306;DHT22;10812;51.838;5.838;2022-11-21T16:19:09;7.10;99.90
21306;DHT22;10812;51.838;5.838;2022-11-21T16:21:40;7.10;99.90
21306;DHT22;10812;51.838;5.838;2022-11-21T16:24:08;7.10;99.90
21306;DHT22;10812;51.838;5.838;2022-11-21T16:26:36;7.10;99.90
21306;DHT22;10812;51.838;5.838;2022-11-21T16:29:04;7.20;99.90
21306;DHT22;10812;51.838;5.838;2022-11-21T16:31:33;7.10;99.90
21306;DHT22;10812;51.838;5.838;2022-11-21T16:34:01;7.10;99.90
21306;DHT22;10812;51.838;5.838;2022-11-21T16:36:30;7.20;99.90
21306;DHT22;10812;51.838;5.838;2022-11-21T16:39:00;7.20;99.90
21306;DHT22;10812;51.838;5.838;2022-11-21T16:41:36;7.20;99.90
21306;DHT22;10812;51.838;5.838;2022-11-21T16:44:11;7.20;99.90
21306;DHT22;10812;51.838;5.838;2022-11-21T16:46:41;7.20;99.90
21306;DHT22;10812;51.838;5.838;2022-11-21T16:49:09;7.20;99.90
21306;DHT22;10812;51.838;5.838;2022-11-21T16:51:37;7.20;99.90
21306;DHT22;10812;51.838;5.838;2022-11-21T16:54:07;7.20;99.90
21306;DHT22;10812;51.838;5.838;2022-11-21T16:56:35;7.20;99.90
21306;DHT22;10812;51.838;5.838;2022-11-21T16:59:03;7.10;99.90
21306;DHT22;10812;51.838;5.838;2022-11-21T17:01:32;7.10;99.90
21306;DHT22;10812;51.838;5.838;2022-11-21T17:04:00;7.20;99.90
21306;DHT22;10812;51.838;5.838;2022-11-21T17:06:29;7.20;99.90